Terminal Aerodrome Forecast
Issued by NWS Cleveland, OH

Home | Current Version | Previous Version | Text Only | Print | Product List | Glossary On
Versions: 1 2 3 4 5 6 7 8 9 10 11 12 13 14 15 16 17 18
000
FTUS41 KCLE 231000 AAB
TAFCAK
TAF AMD
KCAK 231036Z 2311/2406 24006KT P6SM VCTS SCT035CB BKN060
      TEMPO 2311/2314 3SM -SHRA BR OVC035
     FM231400 27006KT P6SM BKN040 OVC080
      TEMPO 2314/2317 4SM -SHRA BR BKN012
     FM231700 34010KT P6SM OVC012
     FM232000 34010KT P6SM BKN025
     FM232200 34010KT P6SM BKN035
     FM240000 34010KT P6SM BKN045=

USA.gov is the U.S. government's official web portal to all federal, state and local government web resources and services.